createdAt,value
2023-03-29T00:02:00.735Z,0.50
2023-03-29T00:07:04.865Z,0.70
2023-03-29T00:12:08.526Z,1.15
2023-03-29T00:17:10.841Z,0.80
2023-03-29T00:22:13.286Z,0.85
2023-03-29T00:27:17.005Z,1.00
2023-03-29T00:32:20.388Z,0.88
2023-03-29T00:37:26.795Z,1.00
2023-03-29T00:42:28.998Z,1.30
2023-03-29T00:47:48.575Z,1.75
2023-03-29T00:53:12.526Z,1.30
2023-03-29T00:58:20.877Z,1.63
2023-03-29T01:03:28.009Z,1.10
2023-03-29T01:08:38.269Z,0.82
2023-03-29T01:18:49.472Z,0.70
2023-03-29T01:23:54.567Z,0.82
2023-03-29T01:29:02.382Z,1.55
2023-03-29T01:34:12.307Z,1.20
2023-03-29T01:39:15.684Z,1.13
2023-03-29T01:44:56.236Z,1.33
2023-03-29T01:50:29.587Z,1.67
2023-03-29T01:55:38.482Z,2.13
2023-03-29T02:00:42.206Z,1.98
2023-03-29T02:05:46.096Z,2.65
2023-03-29T02:10:48.918Z,2.00
2023-03-29T02:15:51.345Z,2.20
2023-03-29T02:20:56.194Z,2.47
2023-03-29T02:25:58.892Z,2.30
2023-03-29T02:31:12.210Z,2.45
2023-03-29T02:36:44.043Z,1.80
2023-03-29T02:41:50.142Z,2.35
2023-03-29T02:47:01.976Z,2.40
2023-03-29T02:52:14.522Z,2.30
2023-03-29T02:57:18.473Z,2.17
2023-03-29T03:02:21.144Z,2.20
2023-03-29T03:07:25.003Z,2.17
2023-03-29T03:12:27.521Z,2.28
2023-03-29T03:17:35.810Z,2.33
2023-03-29T03:22:45.740Z,3.63
2023-03-29T03:27:49.234Z,2.80
2023-03-29T03:32:55.065Z,2.42
2023-03-29T03:38:36.759Z,3.30
2023-03-29T03:43:42.561Z,2.85
2023-03-29T03:48:47.240Z,2.60
2023-03-29T03:54:06.700Z,2.53
2023-03-29T03:59:16.238Z,2.53
2023-03-29T04:04:37.414Z,1.80
2023-03-29T04:10:07.578Z,1.70
2023-03-29T04:15:46.942Z,1.67
2023-03-29T04:20:58.959Z,1.25
2023-03-29T04:26:23.097Z,1.30
2023-03-29T04:32:10.320Z,1.60
2023-03-29T04:37:33.335Z,1.35
2023-03-29T04:42:49.611Z,1.05
2023-03-29T04:48:03.046Z,1.60
2023-03-29T04:58:24.390Z,1.60
2023-03-29T05:03:32.222Z,1.52
2023-03-29T05:08:51.046Z,1.75
2023-03-29T05:14:10.440Z,2.53
2023-03-29T05:19:15.321Z,4.18
2023-03-29T05:24:32.299Z,1.83
2023-03-29T05:29:39.834Z,1.88
2023-03-29T05:35:05.471Z,2.65
2023-03-29T05:40:13.484Z,1.52
2023-03-29T05:46:16.172Z,2.30
2023-03-29T05:51:53.343Z,3.35
2023-03-29T05:56:59.827Z,1.75
2023-03-29T06:02:09.592Z,2.15
2023-03-29T06:07:26.670Z,2.30
2023-03-29T06:12:59.244Z,3.33
2023-03-29T06:18:07.117Z,3.22
2023-03-29T06:23:24.432Z,1.88
2023-03-29T06:29:00.183Z,2.83
2023-03-29T06:34:21.712Z,2.30
2023-03-29T06:39:53.428Z,2.40
2023-03-29T06:45:10.502Z,3.00
2023-03-29T06:50:31.049Z,2.75
2023-03-29T06:55:57.935Z,2.65
2023-03-29T07:01:29.732Z,2.63
2023-03-29T07:07:01.597Z,1.50
2023-03-29T07:12:24.578Z,2.40
2023-03-29T07:17:35.383Z,2.90
2023-03-29T07:22:59.946Z,15.75
2023-03-29T07:28:27.678Z,7.05
2023-03-29T07:34:10.247Z,3.58
2023-03-29T07:39:25.978Z,3.33
2023-03-29T07:45:00.823Z,2.25
2023-03-29T07:50:26.365Z,3.85
2023-03-29T07:55:43.584Z,2.08
2023-03-29T08:01:24.281Z,1.75
2023-03-29T08:06:56.933Z,1.95
2023-03-29T08:28:38.688Z,5.10
2023-03-29T08:39:33.646Z,3.75
2023-03-29T08:45:40.823Z,5.78
2023-03-29T08:56:23.109Z,2.80
2023-03-29T09:01:57.353Z,1.92
2023-03-29T09:13:25.210Z,2.17
2023-03-29T09:31:11.854Z,1.90
2023-03-29T09:36:41.952Z,2.72
2023-03-29T09:48:03.134Z,2.72
2023-03-29T09:59:19.069Z,3.83
2023-03-29T10:04:32.424Z,2.38
2023-03-29T10:16:56.722Z,2.60
2023-03-29T10:22:47.779Z,3.05
2023-03-29T10:34:35.601Z,4.43
2023-03-29T10:51:29.488Z,2.97
2023-03-29T11:02:35.548Z,2.78
2023-03-29T11:08:01.209Z,1.52
2023-03-29T11:13:12.878Z,1.85
2023-03-29T11:18:41.829Z,4.05
2023-03-29T11:24:20.412Z,3.60
2023-03-29T11:30:02.769Z,1.77
2023-03-29T11:36:12.428Z,2.28
2023-03-29T11:41:29.416Z,3.20
2023-03-29T11:47:14.254Z,3.67
2023-03-29T12:04:59.722Z,1.83
2023-03-29T12:10:33.774Z,2.42
2023-03-29T12:15:54.101Z,5.65
2023-03-29T12:21:04.816Z,2.15
2023-03-29T12:26:50.705Z,1.33
2023-03-29T12:32:26.160Z,1.80
2023-03-29T12:38:10.059Z,2.58
2023-03-29T12:44:04.157Z,2.25
2023-03-29T12:49:44.622Z,3.10
2023-03-29T12:54:56.959Z,2.80
2023-03-29T13:00:34.755Z,2.42
2023-03-29T13:06:08.053Z,3.90
2023-03-29T13:11:34.649Z,3.92
2023-03-29T13:16:39.565Z,2.90
2023-03-29T13:21:54.654Z,2.58
2023-03-29T13:27:01.943Z,2.78
2023-03-29T13:32:29.601Z,2.63
2023-03-29T13:38:24.510Z,2.15
2023-03-29T13:43:45.743Z,2.30
2023-03-29T13:49:05.862Z,2.17
2023-03-29T13:54:32.997Z,2.72
2023-03-29T14:00:12.004Z,2.35
2023-03-29T14:05:30.042Z,2.75
2023-03-29T14:10:45.980Z,2.08
2023-03-29T14:16:02.876Z,4.10
2023-03-29T14:21:08.702Z,2.05
2023-03-29T14:26:17.098Z,2.50
2023-03-29T14:31:26.214Z,3.27
2023-03-29T14:36:34.039Z,3.47
2023-03-29T14:41:38.296Z,2.40
2023-03-29T14:46:57.858Z,2.00
2023-03-29T14:52:05.202Z,2.58
2023-03-29T14:57:16.018Z,3.22
2023-03-29T15:02:41.170Z,6.65
2023-03-29T15:07:47.275Z,3.10
2023-03-29T15:12:51.263Z,2.83
2023-03-29T15:18:01.718Z,4.50
2023-03-29T15:23:30.241Z,5.72
2023-03-29T15:34:10.333Z,3.55
2023-03-29T15:39:14.530Z,4.10
2023-03-29T15:44:33.341Z,2.70
2023-03-29T15:49:35.648Z,2.80
2023-03-29T15:54:38.827Z,4.00
2023-03-29T15:59:42.094Z,1.85
2023-03-29T16:04:44.641Z,1.38
2023-03-29T16:09:50.824Z,1.80
2023-03-29T16:14:55.008Z,1.35
2023-03-29T16:20:01.517Z,1.85
2023-03-29T16:25:25.364Z,2.53
2023-03-29T16:30:33.463Z,2.95
2023-03-29T16:35:40.198Z,3.53
2023-03-29T16:40:43.816Z,5.13
2023-03-29T16:45:57.985Z,6.85
2023-03-29T16:51:07.034Z,6.57
2023-03-29T16:56:11.749Z,8.75
2023-03-29T17:01:19.936Z,5.43
2023-03-29T17:06:29.159Z,6.18
2023-03-29T17:11:31.606Z,3.95
2023-03-29T17:16:35.714Z,3.83
2023-03-29T17:21:59.182Z,6.72
2023-03-29T17:27:03.551Z,4.22
2023-03-29T17:32:18.228Z,5.45
2023-03-29T17:37:27.536Z,5.40
2023-03-29T17:42:40.067Z,5.70
2023-03-29T17:47:49.461Z,4.80
2023-03-29T17:53:25.206Z,3.80
2023-03-29T17:58:32.623Z,5.70
2023-03-29T18:03:43.430Z,4.43
2023-03-29T18:14:34.553Z,3.33
2023-03-29T18:19:39.330Z,4.75
2023-03-29T18:24:48.638Z,4.43
2023-03-29T18:30:04.731Z,3.63
2023-03-29T18:35:32.786Z,3.25
2023-03-29T18:40:39.919Z,3.25
2023-03-29T18:45:52.380Z,6.03
2023-03-29T18:51:05.570Z,5.45
2023-03-29T18:56:13.151Z,3.70
2023-03-29T19:01:29.569Z,4.45
2023-03-29T19:07:02.992Z,3.03
2023-03-29T19:17:59.535Z,3.85
2023-03-29T19:29:17.905Z,4.18
2023-03-29T19:34:37.617Z,4.25
2023-03-29T19:39:47.803Z,3.63
2023-03-29T19:45:01.313Z,4.78
2023-03-29T19:50:24.420Z,5.15
2023-03-29T19:55:48.846Z,3.53
2023-03-29T20:00:54.641Z,5.70
2023-03-29T20:06:18.229Z,5.53
2023-03-29T20:11:32.539Z,5.40
2023-03-29T20:16:36.911Z,4.57
2023-03-29T20:21:40.810Z,4.95
2023-03-29T20:27:03.122Z,3.13
2023-03-29T20:32:09.980Z,4.55
2023-03-29T20:37:15.610Z,3.42
2023-03-29T20:42:24.720Z,3.50
2023-03-29T20:47:40.456Z,4.43
2023-03-29T20:52:43.267Z,3.63
2023-03-29T20:57:48.676Z,5.85
2023-03-29T21:03:00.288Z,4.95
2023-03-29T21:08:08.826Z,3.72
2023-03-29T21:13:12.094Z,5.10
2023-03-29T21:18:16.757Z,4.75
2023-03-29T21:23:21.096Z,6.70
2023-03-29T21:28:24.072Z,4.55
2023-03-29T21:33:29.871Z,5.53
2023-03-29T21:38:34.130Z,6.90
2023-03-29T21:43:36.411Z,7.85
2023-03-29T21:48:46.803Z,4.07
2023-03-29T21:59:14.088Z,5.43
2023-03-29T22:04:36.055Z,4.43
2023-03-29T22:09:41.504Z,5.97
2023-03-29T22:14:44.499Z,4.75
2023-03-29T22:19:50.673Z,4.32
2023-03-29T22:24:55.103Z,4.88
2023-03-29T22:30:01.989Z,6.45
2023-03-29T22:35:10.018Z,6.10
2023-03-29T22:40:18.354Z,5.25
2023-03-29T22:45:23.962Z,7.00
2023-03-29T22:50:28.134Z,5.88
2023-03-29T22:55:32.924Z,6.05
2023-03-29T23:00:39.352Z,5.10
2023-03-29T23:05:53.389Z,8.27
2023-03-29T23:10:59.758Z,5.40
2023-03-29T23:16:05.537Z,5.40
2023-03-29T23:22:00.485Z,6.03
2023-03-29T23:27:06.148Z,6.00
2023-03-29T23:32:11.464Z,6.03
2023-03-29T23:37:16.934Z,4.55
2023-03-29T23:42:22.386Z,4.75
2023-03-29T23:47:34.756Z,7.70
2023-03-29T23:52:42.216Z,6.07
2023-03-29T23:57:52.492Z,4.93
